Map

Track Data

SID SEASON NUMBER BASIN SUBBASIN NAME ISO_TIME NATURE LAT LON WMO_WIND WMO_PRES WMO_AGENCY TRACK_TYPE DIST2LAND LANDFALL IFLAG USA_AGENCY USA_ATCF_ID USA_LAT USA_LON USA_RECORD USA_STATUS USA_WIND USA_PRES USA_SSHS USA_R34_NE USA_R34_SE USA_R34_SW USA_R34_NW USA_R50_NE USA_R50_SE USA_R50_SW USA_R50_NW USA_R64_NE USA_R64_SE USA_R64_SW USA_R64_NW USA_POCI USA_ROCI USA_RMW USA_EYE TOKYO_LAT TOKYO_LON TOKYO_GRADE TOKYO_WIND TOKYO_PRES TOKYO_R50_DIR TOKYO_R50_LONG TOKYO_R50_SHORT TOKYO_R30_DIR TOKYO_R30_LONG TOKYO_R30_SHORT TOKYO_LAND CMA_LAT CMA_LON CMA_CAT CMA_WIND CMA_PRES HKO_LAT HKO_LON HKO_CAT HKO_WIND HKO_PRES NEWDELHI_LAT NEWDELHI_LON NEWDELHI_GRADE NEWDELHI_WIND NEWDELHI_PRES NEWDELHI_CI NEWDELHI_DP NEWDELHI_POCI REUNION_LAT REUNION_LON REUNION_TYPE REUNION_WIND REUNION_PRES REUNION_TNUM REUNION_CI REUNION_RMW REUNION_R34_NE REUNION_R34_SE REUNION_R34_SW REUNION_R34_NW REUNION_R50_NE REUNION_R50_SE REUNION_R50_SW REUNION_R50_NW REUNION_R64_NE REUNION_R64_SE REUNION_R64_SW REUNION_R64_NW BOM_LAT BOM_LON BOM_TYPE BOM_WIND BOM_PRES BOM_TNUM BOM_CI BOM_RMW BOM_R34_NE BOM_R34_SE BOM_R34_SW BOM_R34_NW BOM_R50_NE BOM_R50_SE BOM_R50_SW BOM_R50_NW BOM_R64_NE BOM_R64_SE BOM_R64_SW BOM_R64_NW BOM_ROCI BOM_POCI BOM_EYE BOM_POS_METHOD BOM_PRES_METHOD NADI_LAT NADI_LON NADI_CAT NADI_WIND NADI_PRES WELLINGTON_LAT WELLINGTON_LON WELLINGTON_WIND WELLINGTON_PRES DS824_LAT DS824_LON DS824_STAGE DS824_WIND DS824_PRES TD9636_LAT TD9636_LON TD9636_STAGE TD9636_WIND TD9636_PRES TD9635_LAT TD9635_LON TD9635_WIND TD9635_PRES TD9635_ROCI NEUMANN_LAT NEUMANN_LON NEUMANN_CLASS NEUMANN_WIND NEUMANN_PRES MLC_LAT MLC_LON MLC_CLASS MLC_WIND MLC_PRES USA_GUST BOM_GUST BOM_GUST_PER REUNION_GUST REUNION_GUST_PER USA_SEAHGT USA_SEARAD_NE USA_SEARAD_SE USA_SEARAD_SW USA_SEARAD_NW STORM_SPEED STORM_DIR
1889245N16317 1889 19 NA NA NOT_NAMED 1889-09-02 00:00:00 TS 15.9000 -42.9000 35 hurdat_atl main 1591 1575 O_____________ hurdat_atl AL051889 15.9000 -42.9000 TS 35 0 9 287
1889245N16317 1889 19 NA NA NOT_NAMED 1889-09-02 03:00:00 TS 16.0377 -43.3599 main 1569 1560 P_____________ AL051889 16.0377 -43.3599 TS 35 0 9 289
1889245N16317 1889 19 NA NA NOT_NAMED 1889-09-02 06:00:00 TS 16.2000 -43.8000 35 hurdat_atl main 1562 1551 O_____________ hurdat_atl AL051889 16.2000 -43.8000 TS 35 0 9 294
1889245N16317 1889 19 NA NA NOT_NAMED 1889-09-02 09:00:00 TS 16.3999 -44.2075 main 1553 1543 P_____________ AL051889 16.3999 -44.2075 TS 37 0 9 298
1889245N16317 1889 19 NA NA NOT_NAMED 1889-09-02 12:00:00 TS 16.6000 -44.6000 40 hurdat_atl main 1546 1531 O_____________ hurdat_atl AL051889 16.6000 -44.6000 TS 40 0 8 295
1889245N16317 1889 19 NA NA NOT_NAMED 1889-09-02 15:00:00 TS 16.7498 -44.9777 main 1531 1523 P_____________ AL051889 16.7498 -44.9777 TS 40 0 8 291
1889245N16317 1889 19 NA NA NOT_NAMED 1889-09-02 18:00:00 TS 16.9000 -45.4000 40 hurdat_atl main 1527 1515 O_____________ hurdat_atl AL051889 16.9000 -45.4000 TS 40 0 10 291
1889245N16317 1889 19 NA NA NOT_NAMED 1889-09-02 21:00:00 TS 17.0923 -45.9051 main 1519 1508 P_____________ AL051889 17.0923 -45.9051 TS 42 0 11 291
1889245N16317 1889 19 NA NA NOT_NAMED 1889-09-03 00:00:00 TS 17.3000 -46.5000 45 hurdat_atl main 1508 1494 O_____________ hurdat_atl AL051889 17.3000 -46.5000 TS 45 0 13 289
1889245N16317 1889 19 NA NA NOT_NAMED 1889-09-03 03:00:00 TS 17.5077 -47.1999 main 1496 1485 P_____________ AL051889 17.5077 -47.1999 TS 45 0 14 287
1889245N16317 1889 19 NA NA NOT_NAMED 1889-09-03 06:00:00 TS 17.7000 -47.9000 45 hurdat_atl main 1487 1474 O_____________ hurdat_atl AL051889 17.7000 -47.9000 TS 45 0 12 286
1889245N16317 1889 19 NA NA NOT_NAMED 1889-09-03 09:00:00 TS 17.8569 -48.4503 main 1479 1466 P_____________ AL051889 17.8569 -48.4503 TS 47 0 11 286
1889245N16317 1889 19 NA NA NOT_NAMED 1889-09-03 12:00:00 TS 18.0000 -49.0000 50 hurdat_atl main 1467 1454 O_____________ hurdat_atl AL051889 18.0000 -49.0000 TS 50 0 12 284
1889245N16317 1889 19 NA NA NOT_NAMED 1889-09-03 15:00:00 TS 18.1424 -49.6702 main 1450 1422 P_____________ AL051889 18.1424 -49.6702 TS 50 0 14 283
1889245N16317 1889 19 NA NA NOT_NAMED 1889-09-03 18:00:00 TS 18.3000 -50.4000 50 hurdat_atl main 1422 1376 O_____________ hurdat_atl AL051889 18.3000 -50.4000 TS 50 0 15 283
1889245N16317 1889 19 NA NA NOT_NAMED 1889-09-03 21:00:00 TS 18.4775 -51.1651 main 1368 1326 P_____________ AL051889 18.4775 -51.1651 TS 50 0 15 286
1889245N16317 1889 19 NA NA NOT_NAMED 1889-09-04 00:00:00 TS 18.7000 -51.9000 50 hurdat_atl main 1326 1294 O_____________ hurdat_atl AL051889 18.7000 -51.9000 TS 50 0 14 291
1889245N16317 1889 19 NA NA NOT_NAMED 1889-09-04 03:00:00 TS 18.9771 -52.5227 main 1302 1281 P_____________ AL051889 18.9771 -52.5227 TS 50 0 13 298
1889245N16317 1889 19 NA NA NOT_NAMED 1889-09-04 06:00:00 TS 19.3000 -53.1000 50 hurdat_atl main 1282 1258 O_____________ hurdat_atl AL051889 19.3000 -53.1000 TS 50 0 13 301
1889245N16317 1889 19 NA NA NOT_NAMED 1889-09-04 09:00:00 TS 19.6576 -53.7373 main 1258 1199 P_____________ AL051889 19.6576 -53.7373 TS 50 0 13 302
1889245N16317 1889 19 NA NA NOT_NAMED 1889-09-04 12:00:00 TS 20.0000 -54.3000 50 hurdat_atl main 1199 1161 O_____________ hurdat_atl AL051889 20.0000 -54.3000 TS 50 0 11 303
1889245N16317 1889 19 NA NA NOT_NAMED 1889-09-04 15:00:00 TS 20.2497 -54.6955 main 1161 1135 P_____________ AL051889 20.2497 -54.6955 TS 50 0 8 307
1889245N16317 1889 19 NA NA NOT_NAMED 1889-09-04 18:00:00 TS 20.5000 -55.0000 50 hurdat_atl main 1135 1111 O_____________ hurdat_atl AL051889 20.5000 -55.0000 TS 50 0 8 316
1889245N16317 1889 19 NA NA NOT_NAMED 1889-09-04 21:00:00 TS 20.8424 -55.3150 main 1111 1088 P_____________ AL051889 20.8424 -55.3150 TS 50 0 9 321
1889245N16317 1889 19 NA NA NOT_NAMED 1889-09-05 00:00:00 TS 21.2000 -55.6000 50 hurdat_atl main 1091 1071 O_____________ hurdat_atl AL051889 21.2000 -55.6000 TS 50 0 8 322
1889245N16317 1889 19 NA NA NOT_NAMED 1889-09-05 03:00:00 TS 21.5000 -55.8652 main 1071 1058 P_____________ AL051889 21.5000 -55.8652 TS 50 0 8 322
1889245N16317 1889 19 NA NA NOT_NAMED 1889-09-05 06:00:00 TS 21.8000 -56.1000 50 hurdat_atl main 1062 1050 O_____________ hurdat_atl AL051889 21.8000 -56.1000 TS 50 0 7 327
1889245N16317 1889 19 NA NA NOT_NAMED 1889-09-05 09:00:00 TS 22.1049 -56.2855 main 1054 1048 P_____________ AL051889 22.1049 -56.2855 TS 50 0 8 332
1889245N16317 1889 19 NA NA NOT_NAMED 1889-09-05 12:00:00 TS 22.5000 -56.5000 50 hurdat_atl main 1052 1044 O_____________ hurdat_atl AL051889 22.5000 -56.5000 TS 50 0 11 332
1889245N16317 1889 19 NA NA NOT_NAMED 1889-09-05 15:00:00 TS 23.0852 -56.8494 main 1054 1044 P_____________ AL051889 23.0852 -56.8494 TS 50 0 14 332
1889245N16317 1889 19 NA NA NOT_NAMED 1889-09-05 18:00:00 TS 23.7000 -57.2000 50 hurdat_atl main 1053 1051 O_____________ hurdat_atl AL051889 23.7000 -57.2000 TS 50 0 12 334
1889245N16317 1889 19 NA NA NOT_NAMED 1889-09-05 21:00:00 TS 24.1799 -57.4378 main 1068 1059 P_____________ AL051889 24.1799 -57.4378 TS 50 0 10 338
1889245N16317 1889 19 NA NA NOT_NAMED 1889-09-06 00:00:00 TS 24.6000 -57.6000 50 hurdat_atl main 1078 1078 O_____________ hurdat_atl AL051889 24.6000 -57.6000 TS 50 0 9 343
1889245N16317 1889 19 NA NA NOT_NAMED 1889-09-06 03:00:00 TS 25.0000 -57.7153 main 1099 1099 P_____________ AL051889 25.0000 -57.7153 TS 50 0 8 347
1889245N16317 1889 19 NA NA NOT_NAMED 1889-09-06 06:00:00 TS 25.4000 -57.8000 50 hurdat_atl main 1121 1121 O_____________ hurdat_atl AL051889 25.4000 -57.8000 TS 50 0 8 347
1889245N16317 1889 19 NA NA NOT_NAMED 1889-09-06 09:00:00 TS 25.8200 -57.9223 main 1145 1145 P_____________ AL051889 25.8200 -57.9223 TS 50 0 9 349
1889245N16317 1889 19 NA NA NOT_NAMED 1889-09-06 12:00:00 TS 26.3000 -58.0000 50 hurdat_atl main 1178 1178 O_____________ hurdat_atl AL051889 26.3000 -58.0000 TS 50 0 10 356
1889245N16317 1889 19 NA NA NOT_NAMED 1889-09-06 15:00:00 TS 26.8474 -58.0094 main 1219 1219 P_____________ AL051889 26.8474 -58.0094 TS 50 0 12 4
1889245N16317 1889 19 NA NA NOT_NAMED 1889-09-06 18:00:00 TS 27.5000 -57.9000 50 hurdat_atl main 1285 1285 O_____________ hurdat_atl AL051889 27.5000 -57.9000 TS 50 0 15 12
1889245N16317 1889 19 NA NA NOT_NAMED 1889-09-06 21:00:00 TS 28.2999 -57.6676 main 1368 1368 P_____________ AL051889 28.2999 -57.6676 TS 52 0 17 18
1889245N16317 1889 19 NA NA NOT_NAMED 1889-09-07 00:00:00 TS 29.1000 -57.3000 55 hurdat_atl main 1462 1462 O_____________ hurdat_atl AL051889 29.1000 -57.3000 TS 55 0 16 27
1889245N16317 1889 19 NA NA NOT_NAMED 1889-09-07 03:00:00 TS 29.7451 -56.8299 main 1545 1545 P_____________ AL051889 29.7451 -56.8299 TS 57 0 15 36
1889245N16317 1889 19 NA NA NOT_NAMED 1889-09-07 06:00:00 TS 30.3000 -56.3000 60 hurdat_atl main 1627 1627 O_____________ hurdat_atl AL051889 30.3000 -56.3000 TS 60 0 14 39
1889245N16317 1889 19 NA NA NOT_NAMED 1889-09-07 09:00:00 TS 30.8296 -55.8143 main 1642 1611 P_____________ AL051889 30.8296 -55.8143 TS 62 0 13 41
1889245N16317 1889 19 NA NA NOT_NAMED 1889-09-07 12:00:00 TS 31.3000 -55.3000 65 hurdat_atl main 1616 1598 O_____________ hurdat_atl AL051889 31.3000 -55.3000 HU 65 1 13 46
1889245N16317 1889 19 NA NA NOT_NAMED 1889-09-07 15:00:00 TS 31.7143 -54.7514 main 1598 1574 P_____________ AL051889 31.7143 -54.7514 HU 67 1 13 52
1889245N16317 1889 19 NA NA NOT_NAMED 1889-09-07 18:00:00 TS 32.1000 -54.1000 70 hurdat_atl main 1577 1560 O_____________ hurdat_atl AL051889 32.1000 -54.1000 HU 70 1 15 57
1889245N16317 1889 19 NA NA NOT_NAMED 1889-09-07 21:00:00 TS 32.5076 -53.2874 main 1564 1525 P_____________ AL051889 32.5076 -53.2874 HU 70 1 16 61
1889245N16317 1889 19 NA NA NOT_NAMED 1889-09-08 00:00:00 TS 32.9000 -52.4000 70 hurdat_atl main 1526 1486 O_____________ hurdat_atl AL051889 32.9000 -52.4000 HU 70 1 17 62
1889245N16317 1889 19 NA NA NOT_NAMED 1889-09-08 03:00:00 TS 33.2794 -51.5498 main 1487 1460 P_____________ AL051889 33.2794 -51.5498 HU 70 1 16 64
1889245N16317 1889 19 NA NA NOT_NAMED 1889-09-08 06:00:00 TS 33.6000 -50.7000 70 hurdat_atl main 1461 1446 O_____________ hurdat_atl AL051889 33.6000 -50.7000 HU 70 1 15 69
1889245N16317 1889 19 NA NA NOT_NAMED 1889-09-08 09:00:00 TS 33.8450 -49.8197 main 1452 1439 P_____________ AL051889 33.8450 -49.8197 HU 70 1 15 74
1889245N16317 1889 19 NA NA NOT_NAMED 1889-09-08 12:00:00 TS 34.0000 -49.0000 70 hurdat_atl main 1445 1443 O_____________ hurdat_atl AL051889 34.0000 -49.0000 HU 70 1 13 80
1889245N16317 1889 19 NA NA NOT_NAMED 1889-09-08 15:00:00 TS 34.0715 -48.3268 main 1450 1450 P_____________ AL051889 34.0715 -48.3268 HU 70 1 11 85
1889245N16317 1889 19 NA NA NOT_NAMED 1889-09-08 18:00:00 TS 34.1000 -47.7000 70 hurdat_atl main 1465 1465 O_____________ hurdat_atl AL051889 34.1000 -47.7000 HU 70 1 11 86
1889245N16317 1889 19 NA NA NOT_NAMED 1889-09-08 21:00:00 TS 34.1496 -47.0149 main 1485 1474 P_____________ AL051889 34.1496 -47.0149 HU 70 1 12 85
1889245N16317 1889 19 NA NA NOT_NAMED 1889-09-09 00:00:00 TS 34.2000 -46.3000 70 hurdat_atl main 1496 1496 O_____________ hurdat_atl AL051889 34.2000 -46.3000 HU 70 1 12 86
1889245N16317 1889 19 NA NA NOT_NAMED 1889-09-09 03:00:00 TS 34.2417 -45.5796 main 1519 1516 P_____________ AL051889 34.2417 -45.5796 HU 70 1 12 85
1889245N16317 1889 19 NA NA NOT_NAMED 1889-09-09 06:00:00 TS 34.3000 -44.8000 70 hurdat_atl main 1539 1539 O_____________ hurdat_atl AL051889 34.3000 -44.8000 HU 70 1 14 83
1889245N16317 1889 19 NA NA NOT_NAMED 1889-09-09 09:00:00 TS 34.4071 -43.9305 main 1565 1565 P_____________ AL051889 34.4071 -43.9305 HU 70 1 15 82
1889245N16317 1889 19 NA NA NOT_NAMED 1889-09-09 12:00:00 TS 34.5000 -43.0000 70 hurdat_atl main 1594 1594 O_____________ hurdat_atl AL051889 34.5000 -43.0000 HU 70 1 15 86
1889245N16317 1889 19 NA NA NOT_NAMED 1889-09-09 15:00:00 TS 34.5066 -42.0717 main 1635 1635 P_____________ AL051889 34.5066 -42.0717 HU 70 1 16 90
1889245N16317 1889 19 NA NA NOT_NAMED 1889-09-09 18:00:00 TS 34.5000 -41.1000 70 hurdat_atl main 1684 1684 O_____________ hurdat_atl AL051889 34.5000 -41.1000 HU 70 1 17 89
1889245N16317 1889 19 NA NA NOT_NAMED 1889-09-09 21:00:00 TS 34.5349 -40.0499 main 1741 1741 P_____________ AL051889 34.5349 -40.0499 HU 70 1 17 87
1889245N16317 1889 19 NA NA NOT_NAMED 1889-09-10 00:00:00 TS 34.6000 -39.0000 70 hurdat_atl main 1786 1786 O_____________ hurdat_atl AL051889 34.6000 -39.0000 HU 70 1 16 85
1889245N16317 1889 19 NA NA NOT_NAMED 1889-09-10 03:00:00 TS 34.6686 -38.0491 main 1834 1834 P_____________ AL051889 34.6686 -38.0491 HU 70 1 16 83
1889245N16317 1889 19 NA NA NOT_NAMED 1889-09-10 06:00:00 TS 34.8000 -37.1000 70 hurdat_atl main 1878 1878 O_____________ hurdat_atl AL051889 34.8000 -37.1000 HU 70 1 17 78
1889245N16317 1889 19 NA NA NOT_NAMED 1889-09-10 09:00:00 TS 35.0270 -36.0653 main 1922 1890 P_____________ AL051889 35.0270 -36.0653 HU 70 1 18 74
1889245N16317 1889 19 NA NA NOT_NAMED 1889-09-10 12:00:00 TS 35.3000 -35.0000 70 hurdat_atl main 1882 1805 O_____________ hurdat_atl AL051889 35.3000 -35.0000 HU 70 1 18 74
1889245N16317 1889 19 NA NA NOT_NAMED 1889-09-10 15:00:00 TS 35.5268 -33.9411 main 1796 1735 P_____________ AL051889 35.5268 -33.9411 HU 70 1 18 74
1889245N16317 1889 19 NA NA NOT_NAMED 1889-09-10 18:00:00 TS 35.8000 -32.9000 70 hurdat_atl main 1727 1660 O_____________ hurdat_atl AL051889 35.8000 -32.9000 HU 70 1 18 69
1889245N16317 1889 19 NA NA NOT_NAMED 1889-09-10 21:00:00 TS 36.1542 -31.8840 main 1665 1611 P_____________ AL051889 36.1542 -31.8840 HU 67 1 18 64
1889245N16317 1889 19 NA NA NOT_NAMED 1889-09-11 00:00:00 TS 36.6000 -30.9000 65 hurdat_atl main 1609 1572 O_____________ hurdat_atl AL051889 36.6000 -30.9000 HU 65 1 18 58
1889245N16317 1889 19 NA NA NOT_NAMED 1889-09-11 03:00:00 TS 37.1114 -29.9485 main 1565 1542 P_____________ AL051889 37.1114 -29.9485 HU 62 0 19 54
1889245N16317 1889 19 NA NA NOT_NAMED 1889-09-11 06:00:00 TS 37.7000 -29.0000 60 hurdat_atl main 1542 1525 O_____________ hurdat_atl AL051889 37.7000 -29.0000 TS 60 0 19 52
1889245N16317 1889 19 NA NA NOT_NAMED 1889-09-11 09:00:00 TS 38.3034 -28.0414 main 1521 1512 P_____________ AL051889 38.3034 -28.0414 TS 55 0 20 50
1889245N16317 1889 19 NA NA NOT_NAMED 1889-09-11 12:00:00 TS 39.0000 -27.0000 50 hurdat_atl main 1507 1409 O_____________ hurdat_atl AL051889 39.0000 -27.0000 TS 50 0 23 49
1889245N16317 1889 19 NA NA NOT_NAMED 1889-09-11 15:00:00 TS 39.8185 -25.8058 main 1400 1285 P_____________ AL051889 39.8185 -25.8058 TS 45 0 26 48
1889245N16317 1889 19 NA NA NOT_NAMED 1889-09-11 18:00:00 TS 40.7000 -24.5000 40 hurdat_atl main 1277 O_____________ hurdat_atl AL051889 40.7000 -24.5000 TS 40 0 27 48

About IBTrACS Database

This database is a web-friendly format of International Best Track Archive for Climate Stewardship (IBTrACS), a global best track data archive curated by NOAA dating back to 1842.

Updated: 2021-12-03